Time;durP1;ratioP1;P1;durP2;ratioP2;P2;SDS_P1;SDS_P2;PMS_P1;PMS_P2;Temp;Humidity;BMP_temperature;BMP_pressure;BME280_temperature;BME280_humidity;BME280_pressure;Samples;Min_cycle;Max_cycle;Signal;HPM_P1;HPM_P2
2022/04/10 00:01:56;;;;;;;;;;;;;;;7.54;53.88;99014.25;5228796;27;33849;-89
2022/04/10 00:04:27;;;;;;;;;;;;;;;7.15;55.43;99011.25;5228323;27;34266;-90
2022/04/10 00:07:01;;;;;;;;;;;;;;;7.15;55.61;99002.63;5207999;27;32884;-88
2022/04/10 00:09:30;;;;;;;;;;;;;;;6.98;56.29;99002.78;5232902;27;33924;-88
2022/04/10 00:12:04;;;;;;;;;;;;;;;6.94;56.60;98995.97;5227540;27;35057;-89
2022/04/10 00:14:40;;;;;;;;;;;;;;;7.02;56.38;99004.47;5227383;27;34463;-88
2022/04/10 00:17:09;;;;;;;;;;;;;;;6.92;56.98;98995.13;5227922;27;33526;-89
2022/04/10 00:19:45;;;;;;;;;;;;;;;6.96;56.95;98991.62;5227611;27;33965;-87
2022/04/10 00:22:15;;;;;;;;;;;;;;;6.82;56.62;98991.78;5225929;27;33596;-88
2022/04/10 00:24:47;;;;;;;;;;;;;;;6.69;57.21;98997.91;5215020;27;32738;-89
2022/04/10 00:27:26;;;;;;;;;;;;;;;6.94;56.42;99001.13;5229269;27;33673;-88
2022/04/10 00:29:55;;;;;;;;;;;;;;;7.05;56.14;99000.16;5228102;27;34569;-88
2022/04/10 00:32:27;;;;;;;;;;;;;;;7.01;56.37;99003.63;5211208;27;33562;-88
2022/04/10 00:34:57;;;;;;;;;;;;;;;7.20;55.69;99012.03;5230828;27;32954;-89
2022/04/10 00:37:30;;;;;;;;;;;;;;;7.15;56.12;99002.63;5232951;27;32716;-89
2022/04/10 00:39:59;;;;;;;;;;;;;;;6.95;56.86;98995.09;5233181;27;33510;-89
2022/04/10 00:42:31;;;;;;;;;;;;;;;6.71;57.87;98994.44;5233241;27;34715;-89
2022/04/10 00:45:00;;;;;;;;;;;;;;;6.54;58.46;98999.75;5233374;27;35148;-87
2022/04/10 00:47:32;;;;;;;;;;;;;;;6.51;58.84;99004.91;5231722;27;33850;-88
2022/04/10 00:50:02;;;;;;;;;;;;;;;6.31;59.45;99002.50;5230159;27;35060;-89
2022/04/10 00:52:34;;;;;;;;;;;;;;;6.35;59.38;99008.47;5234560;27;34426;-89
2022/04/10 00:55:03;;;;;;;;;;;;;;;6.01;60.26;99002.69;5226511;27;34724;-89
2022/04/10 00:57:35;;;;;;;;;;;;;;;6.32;59.94;99016.22;5226426;27;33491;-87
2022/04/10 01:00:05;;;;;;;;;;;;;;;6.15;60.55;99024.06;5226716;27;34880;-89
2022/04/10 01:02:36;;;;;;;;;;;;;;;6.45;60.17;99025.59;5226306;27;34650;-90
2022/04/10 01:05:06;;;;;;;;;;;;;;;6.46;59.94;99029.88;5229193;27;34854;-88
2022/04/10 01:07:39;;;;;;;;;;;;;;;6.26;60.71;99042.91;5234841;27;33865;-89
2022/04/10 01:10:08;;;;;;;;;;;;;;;6.28;60.96;99054.06;5229259;27;34109;-88
2022/04/10 01:12:38;;;;;;;;;;;;;;;6.30;60.61;99052.28;5226127;27;34067;-89
2022/04/10 01:15:09;;;;;;;;;;;;;;;6.07;61.69;99047.28;5210149;27;34237;-90
2022/04/10 01:17:38;;;;;;;;;;;;;;;5.72;62.92;99039.69;5229554;27;34085;-88
2022/04/10 01:20:07;;;;;;;;;;;;;;;5.85;62.42;99046.50;5234330;27;33991;-89
2022/04/10 01:22:45;;;;;;;;;;;;;;;5.93;62.18;99049.06;5209786;27;35472;-89
2022/04/10 01:25:14;;;;;;;;;;;;;;;5.82;62.90;99053.38;5228325;27;32410;-89
2022/04/10 01:27:51;;;;;;;;;;;;;;;5.91;62.53;99049.03;5233497;27;33590;-89
2022/04/10 01:30:22;;;;;;;;;;;;;;;5.75;62.80;99053.41;5215524;27;34187;-88
2022/04/10 01:32:51;;;;;;;;;;;;;;;5.51;63.73;99054.38;5214579;27;33692;-89
2022/04/10 01:35:26;;;;;;;;;;;;;;;5.59;63.70;99061.19;5234071;27;34145;-89
2022/04/10 01:37:56;;;;;;;;;;;;;;;5.89;62.92;99063.63;5232001;27;33349;-89
2022/04/10 01:40:26;;;;;;;;;;;;;;;5.63;63.57;99068.03;5230404;27;35236;-88
2022/04/10 01:42:54;;;;;;;;;;;;;;;5.61;63.88;99067.19;5228392;27;34288;-88
2022/04/10 01:45:29;;;;;;;;;;;;;;;5.42;64.46;99080.09;5229295;27;33782;-89
2022/04/10 01:48:01;;;;;;;;;;;;;;;5.62;64.04;99076.63;5213476;27;32612;-89
2022/04/10 01:50:34;;;;;;;;;;;;;;;5.32;64.49;99071.56;5234756;27;35208;-89
2022/04/10 01:53:07;;;;;;;;;;;;;;;5.24;65.33;99074.97;5228538;27;34304;-90
2022/04/10 01:55:40;;;;;;;;;;;;;;;5.51;64.11;99072.38;5228634;27;34261;-88
2022/04/10 01:58:12;;;;;;;;;;;;;;;5.44;64.31;99073.25;5209363;27;33251;-88
2022/04/10 02:00:41;;;;;;;;;;;;;;;5.71;63.35;99077.44;5228975;27;33729;-88
2022/04/10 02:03:10;;;;;;;;;;;;;;;5.38;64.12;99070.66;5234583;27;34931;-89
2022/04/10 02:05:40;;;;;;;;;;;;;;;5.53;63.84;99077.50;5226898;27;33995;-89
2022/04/10 02:08:18;;;;;;;;;;;;;;;5.49;63.82;99073.22;5228325;27;32897;-89
2022/04/10 02:10:46;;;;;;;;;;;;;;;5.45;63.95;99069.81;5229166;27;33756;-90
2022/04/10 02:13:16;;;;;;;;;;;;;;;5.47;63.78;99073.22;5232511;27;34968;-87
2022/04/10 02:15:48;;;;;;;;;;;;;;;5.49;63.33;99071.50;5233068;27;34969;-88
2022/04/10 02:18:20;;;;;;;;;;;;;;;5.32;64.34;99075.84;5234321;27;33911;-88
2022/04/10 02:20:48;;;;;;;;;;;;;;;5.58;63.07;99070.59;5230228;27;32268;-90
2022/04/10 02:23:22;;;;;;;;;;;;;;;5.68;62.45;99082.62;5229424;27;34666;-89
2022/04/10 02:25:51;;;;;;;;;;;;;;;5.36;63.54;99082.69;5229480;27;33397;-88
2022/04/10 02:28:23;;;;;;;;;;;;;;;5.39;63.31;99085.25;5228865;27;34306;-88
2022/04/10 02:30:52;;;;;;;;;;;;;;;5.55;62.81;99088.63;5233989;27;34897;-88
2022/04/10 02:33:26;;;;;;;;;;;;;;;5.51;62.84;99094.69;5233858;27;33477;-89
2022/04/10 02:35:55;;;;;;;;;;;;;;;5.57;62.48;99095.50;5229393;27;34288;-89
2022/04/10 02:38:25;;;;;;;;;;;;;;;5.34;63.56;99089.56;5229656;27;33090;-88
2022/04/10 02:40:53;;;;;;;;;;;;;;;5.41;63.35;99086.09;5228928;27;34678;-88
2022/04/10 02:43:24;;;;;;;;;;;;;;;5.58;62.61;99096.34;5229618;27;34534;-88
2022/04/10 02:45:55;;;;;;;;;;;;;;;5.39;63.02;99099.81;5235016;27;33466;-90
2022/04/10 02:48:28;;;;;;;;;;;;;;;5.26;63.53;99081.84;5229755;27;33685;-88
2022/04/10 02:50:57;;;;;;;;;;;;;;;5.13;64.09;99100.72;5210361;27;33846;-88
2022/04/10 02:53:31;;;;;;;;;;;;;;;5.13;64.15;99096.44;5229747;27;35071;-87
2022/04/10 02:55:59;;;;;;;;;;;;;;;5.35;63.38;99104.13;5229389;27;34385;-90
2022/04/10 02:58:54;;;;;;;;;;;;;;;5.08;63.79;99112.72;5230140;27;34333;-88
2022/04/10 03:01:41;;;;;;;;;;;;;;;5.21;63.37;99106.69;5229322;27;35023;-88
2022/04/10 03:04:28;;;;;;;;;;;;;;;5.00;64.25;99112.72;5235298;27;35053;-88
2022/04/10 03:07:15;;;;;;;;;;;;;;;5.21;63.24;99123.84;5235047;27;35006;-90
2022/04/10 03:10:07;;;;;;;;;;;;;;;5.29;63.23;99132.41;5228953;27;34347;-89
2022/04/10 03:12:54;;;;;;;;;;;;;;;5.48;62.91;99131.53;5229660;27;35654;-90
2022/04/10 03:15:42;;;;;;;;;;;;;;;5.54;62.74;99134.09;5228990;27;34962;-88
2022/04/10 03:18:30;;;;;;;;;;;;;;;5.47;63.11;99129.81;5229477;27;35214;-88
2022/04/10 03:21:21;;;;;;;;;;;;;;;5.34;63.22;99138.44;5228124;27;34541;-89
2022/04/10 03:24:09;;;;;;;;;;;;;;;5.14;64.14;99146.13;5227786;27;35789;-88
2022/04/10 03:26:57;;;;;;;;;;;;;;;5.19;64.28;99147.00;5228993;27;35017;-89
2022/04/10 03:29:46;;;;;;;;;;;;;;;5.01;64.67;99155.56;5229211;27;36045;-89
2022/04/10 03:32:36;;;;;;;;;;;;;;;4.95;65.26;99157.28;5229112;27;35454;-88
2022/04/10 03:35:23;;;;;;;;;;;;;;;4.98;65.06;99155.56;5229129;27;34967;-89
2022/04/10 03:38:10;;;;;;;;;;;;;;;5.14;64.17;99164.97;5234424;27;35940;-88
2022/04/10 03:41:01;;;;;;;;;;;;;;;5.12;64.44;99163.28;5235142;27;35168;-87
2022/04/10 03:43:51;;;;;;;;;;;;;;;4.81;65.59;99167.53;5229101;27;35290;-88
2022/04/10 03:46:38;;;;;;;;;;;;;;;4.76;65.45;99162.41;5229138;27;34857;-88
2022/04/10 03:49:29;;;;;;;;;;;;;;;4.68;66.08;99172.63;5229611;27;35095;-89
2022/04/10 03:52:16;;;;;;;;;;;;;;;4.89;65.20;99179.53;5229857;27;36040;-88
2022/04/10 03:55:05;;;;;;;;;;;;;;;4.83;65.14;99178.66;5229428;27;35304;-88
2022/04/10 03:57:53;;;;;;;;;;;;;;;4.56;66.33;99180.31;5230601;27;34938;-90
2022/04/10 04:00:48;;;;;;;;;;;;;;;4.68;65.72;99182.06;5230219;27;35015;-89
2022/04/10 04:03:36;;;;;;;;;;;;;;;4.43;66.47;99176.00;5229703;27;35240;-88
2022/04/10 04:06:26;;;;;;;;;;;;;;;4.62;66.16;99190.63;5229127;27;34286;-90
2022/04/10 04:09:19;;;;;;;;;;;;;;;4.79;65.57;99200.94;5229593;27;34463;-89
2022/04/10 04:12:08;;;;;;;;;;;;;;;4.48;66.91;99200.00;5234834;27;35031;-88
2022/04/10 04:15:00;;;;;;;;;;;;;;;4.89;65.18;99201.81;5235234;27;35340;-90
2022/04/10 04:17:49;;;;;;;;;;;;;;;4.88;65.28;99210.38;5234665;27;34434;-89
2022/04/10 04:20:37;;;;;;;;;;;;;;;4.84;65.23;99209.53;5229223;27;34900;-89
2022/04/10 04:23:24;;;;;;;;;;;;;;;5.02;64.92;99215.53;5228744;27;34724;-89
2022/04/10 04:26:21;;;;;;;;;;;;;;;4.92;64.55;99219.81;5229027;27;35267;-90
2022/04/10 04:29:09;;;;;;;;;;;;;;;4.95;64.93;99216.37;5229210;27;34415;-89
2022/04/10 04:31:56;;;;;;;;;;;;;;;4.81;65.61;99208.63;5231513;27;34945;-88
2022/04/10 04:34:47;;;;;;;;;;;;;;;5.00;65.05;99210.41;5228972;27;34954;-89
2022/04/10 04:37:40;;;;;;;;;;;;;;;5.23;64.51;99222.44;5229716;27;35138;-88
2022/04/10 04:40:29;;;;;;;;;;;;;;;5.09;64.59;99222.41;5231582;27;35181;-88
2022/04/10 04:43:17;;;;;;;;;;;;;;;4.66;66.28;99230.91;5231218;27;35067;-89
2022/04/10 04:46:05;;;;;;;;;;;;;;;4.78;65.82;99235.19;5232579;27;34976;-88
2022/04/10 04:48:52;;;;;;;;;;;;;;;4.86;65.50;99224.97;5234633;27;35164;-91
2022/04/10 04:51:44;;;;;;;;;;;;;;;5.00;64.92;99238.69;5234870;27;35357;-89
2022/04/10 04:54:32;;;;;;;;;;;;;;;4.81;65.66;99224.94;5234360;27;34947;-89
2022/04/10 04:57:19;;;;;;;;;;;;;;;5.02;64.81;99238.69;5229938;27;34679;-90
2022/04/10 05:00:14;;;;;;;;;;;;;;;5.13;64.21;99242.12;5229194;27;35282;-89
2022/04/10 05:03:03;;;;;;;;;;;;;;;5.12;64.52;99245.53;5228133;27;34420;-89
2022/04/10 05:05:51;;;;;;;;;;;;;;;5.10;64.39;99249.84;5228477;27;35805;-90
2022/04/10 05:08:46;;;;;;;;;;;;;;;5.45;63.10;99244.72;5199965;27;779324;-90
2022/04/10 05:11:34;;;;;;;;;;;;;;;5.39;63.23;99246.44;5229160;27;35168;-88
2022/04/10 05:14:21;;;;;;;;;;;;;;;5.19;63.70;99249.84;5229115;27;34315;-89
2022/04/10 05:17:16;;;;;;;;;;;;;;;5.30;63.38;99270.44;5228863;27;35406;-89
2022/04/10 05:20:05;;;;;;;;;;;;;;;5.54;63.30;99265.31;5228670;27;35891;-89
2022/04/10 05:22:53;;;;;;;;;;;;;;;5.72;61.71;99261.87;5228665;27;35190;-88
2022/04/10 05:25:46;;;;;;;;;;;;;;;5.91;61.71;99260.16;5234337;27;35260;-90
2022/04/10 05:28:34;;;;;;;;;;;;;;;6.28;60.08;99273.00;5234386;27;34850;-92
2022/04/10 05:31:22;;;;;;;;;;;;;;;6.26;60.04;99281.56;5234797;27;36020;-92
2022/04/10 05:34:14;;;;;;;;;;;;;;;6.18;59.86;99273.88;5233913;27;35168;-91
2022/04/10 05:37:02;;;;;;;;;;;;;;;6.44;59.20;99285.84;5234261;27;34450;-92
2022/04/10 05:39:49;;;;;;;;;;;;;;;6.39;59.28;99288.44;5233369;27;35422;-91
2022/04/10 05:42:47;;;;;;;;;;;;;;;6.18;59.68;99276.44;5228931;27;35131;-90
2022/04/10 05:45:35;;;;;;;;;;;;;;;6.02;60.50;99288.50;5229340;27;34747;-90
2022/04/10 05:48:22;;;;;;;;;;;;;;;5.68;61.67;99292.78;5228462;27;34303;-90
2022/04/10 05:51:18;;;;;;;;;;;;;;;5.78;61.61;99291.91;5228620;27;35894;-89
2022/04/10 05:54:05;;;;;;;;;;;;;;;5.83;62.30;99297.06;5228943;27;35049;-90
2022/04/10 05:56:55;;;;;;;;;;;;;;;6.01;61.44;99291.91;5228724;27;36025;-90
2022/04/10 05:59:46;;;;;;;;;;;;;;;5.77;61.32;99296.22;5228873;27;35335;-89
2022/04/10 06:02:36;;;;;;;;;;;;;;;5.91;61.39;99303.91;5230540;27;34854;-88
2022/04/10 06:05:26;;;;;;;;;;;;;;;5.92;61.50;99302.19;5234514;27;36063;-90
2022/04/10 06:08:16;;;;;;;;;;;;;;;6.26;60.48;99308.22;5235195;27;35390;-90
2022/04/10 06:11:04;;;;;;;;;;;;;;;6.07;60.93;99320.25;5231314;27;34119;-88
2022/04/10 06:13:51;;;;;;;;;;;;;;;6.18;60.50;99317.66;5231187;27;35832;-89
2022/04/10 06:16:23;;;;;;;;;;;;;;;5.89;61.33;99318.50;5232144;27;35503;-89
2022/04/10 06:18:52;;;;;;;;;;;;;;;5.92;61.66;99317.63;5230635;27;36107;-89
2022/04/10 06:21:22;;;;;;;;;;;;;;;6.04;61.35;99317.69;5230447;27;33391;-89
2022/04/10 06:23:52;;;;;;;;;;;;;;;6.39;60.27;99320.19;5233837;27;32459;-88
2022/04/10 06:26:25;;;;;;;;;;;;;;;6.66;59.82;99323.56;5230190;27;34314;-89
2022/04/10 06:28:57;;;;;;;;;;;;;;;6.66;59.82;99326.12;5229051;27;35063;-90
2022/04/10 06:31:36;;;;;;;;;;;;;;;6.65;59.50;99329.59;5229211;27;33278;-88
2022/04/10 06:34:06;;;;;;;;;;;;;;;7.03;58.68;99323.41;5229868;27;33666;-88
2022/04/10 06:36:35;;;;;;;;;;;;;;;7.11;57.98;99331.97;5229381;27;34909;-90
2022/04/10 06:39:10;;;;;;;;;;;;;;;6.97;58.15;99333.75;5234820;27;33812;-89
2022/04/10 06:41:39;;;;;;;;;;;;;;;6.78;59.09;99341.56;5229746;27;32880;-89
2022/04/10 06:44:10;;;;;;;;;;;;;;;6.99;58.66;99337.19;5229585;27;34236;-91
2022/04/10 06:46:42;;;;;;;;;;;;;;;6.89;59.15;99336.38;5227730;27;33194;-89
2022/04/10 06:49:13;;;;;;;;;;;;;;;7.09;58.91;99341.44;5229764;27;34552;-89
2022/04/10 06:51:42;;;;;;;;;;;;;;;7.49;57.78;99348.97;5229697;27;33256;-89
2022/04/10 06:54:13;;;;;;;;;;;;;;;7.66;56.83;99348.88;5234873;27;34164;-90
2022/04/10 06:56:42;;;;;;;;;;;;;;;7.58;56.13;99346.31;5209968;27;32939;-89
2022/04/10 06:59:15;;;;;;;;;;;;;;;7.60;56.12;99347.16;5228412;27;34762;-90
2022/04/10 07:01:45;;;;;;;;;;;;;;;7.60;55.71;99356.62;5210590;27;32027;-88
2022/04/10 07:04:15;;;;;;;;;;;;;;;7.68;56.38;99360.00;5214913;27;33366;-90
2022/04/10 07:06:46;;;;;;;;;;;;;;;7.80;56.42;99365.09;5235263;27;33418;-90
2022/04/10 07:09:19;;;;;;;;;;;;;;;7.96;55.71;99371.00;5210048;27;33737;-88
2022/04/10 07:11:48;;;;;;;;;;;;;;;7.84;56.68;99364.22;5210900;27;32726;-88
2022/04/10 07:14:19;;;;;;;;;;;;;;;7.93;55.84;99373.63;5229645;27;34232;-89
2022/04/10 07:16:49;;;;;;;;;;;;;;;8.02;55.88;99373.56;5230463;27;34271;-88
2022/04/10 07:19:20;;;;;;;;;;;;;;;8.12;53.96;99375.19;5232066;27;35052;-89
2022/04/10 07:24:35;;;;;;;;;;;;;;;8.17;54.22;99375.16;5228534;27;34658;-89
2022/04/10 07:27:08;;;;;;;;;;;;;;;8.27;53.87;99391.44;5228820;27;34254;-89
2022/04/10 07:29:38;;;;;;;;;;;;;;;8.22;54.20;99383.72;5229012;27;34962;-88
2022/04/10 07:32:13;;;;;;;;;;;;;;;8.60;53.83;99387.72;5192102;27;33642;-89
2022/04/10 07:34:44;;;;;;;;;;;;;;;8.44;53.61;99392.16;5228757;27;33831;-89
2022/04/10 07:37:14;;;;;;;;;;;;;;;8.46;53.53;99395.59;5233759;27;33796;-90
2022/04/10 07:39:46;;;;;;;;;;;;;;;8.70;52.62;99391.91;5230725;27;34958;-90
2022/04/10 07:42:16;;;;;;;;;;;;;;;8.72;51.97;99395.34;5229140;27;33604;-90
2022/04/10 07:45:05;;;;;;;;;;;;;;;8.67;52.07;99391.09;5229180;27;33088;-90
2022/04/10 07:47:37;;;;;;;;;;;;;;;8.40;51.04;99406.00;5227344;27;34303;-90
2022/04/10 07:50:05;;;;;;;;;;;;;;;8.43;51.10;99408.56;5209618;27;33282;-88
2022/04/10 07:52:38;;;;;;;;;;;;;;;8.35;50.63;99402.56;5234781;27;34475;-89
2022/04/10 07:55:07;;;;;;;;;;;;;;;8.08;51.13;99394.16;5230083;27;34061;-89
2022/04/10 07:57:45;;;;;;;;;;;;;;;8.06;51.83;99406.22;5230507;27;34159;-91
2022/04/10 08:00:19;;;;;;;;;;;;;;;8.17;50.67;99410.47;5229335;27;34429;-89
2022/04/10 08:02:49;;;;;;;;;;;;;;;8.27;51.14;99418.12;5230082;27;33642;-89
2022/04/10 08:05:19;;;;;;;;;;;;;;;8.32;51.11;99424.13;5230825;27;33904;-90
2022/04/10 08:07:48;;;;;;;;;;;;;;;8.60;51.28;99431.69;5234238;27;34696;-91
2022/04/10 08:10:16;;;;;;;;;;;;;;;8.73;50.52;99427.25;5229171;27;34368;-90
2022/04/10 08:12:49;;;;;;;;;;;;;;;8.72;50.04;99430.69;5229300;27;34651;-91
2022/04/10 08:15:23;;;;;;;;;;;;;;;8.61;51.52;99440.28;5208777;27;32379;-89
2022/04/10 08:17:53;;;;;;;;;;;;;;;8.74;51.10;99426.34;5228421;27;34825;-89
2022/04/10 08:20:22;;;;;;;;;;;;;;;9.43;51.57;99417.81;5214991;27;34338;-90
2022/04/10 08:22:53;;;;;;;;;;;;;;;9.50;51.02;99432.41;5228767;27;33501;-89
2022/04/10 08:25:26;;;;;;;;;;;;;;;9.50;50.42;99419.44;5228694;27;33705;-89
2022/04/10 08:27:55;;;;;;;;;;;;;;;9.27;50.49;99430.06;5225393;27;32864;-89
2022/04/10 08:30:24;;;;;;;;;;;;;;;9.50;49.30;99432.41;5228205;27;34835;-89
2022/04/10 08:32:54;;;;;;;;;;;;;;;9.51;50.04;99426.31;5228730;27;33201;-90
2022/04/10 08:35:24;;;;;;;;;;;;;;;9.78;48.57;99432.00;5232781;27;33100;-88
2022/04/10 08:37:53;;;;;;;;;;;;;;;9.81;48.44;99417.28;5209315;27;33199;-90
2022/04/10 08:40:22;;;;;;;;;;;;;;;9.75;48.09;99422.53;5228638;27;34056;-90
2022/04/10 08:42:56;;;;;;;;;;;;;;;9.83;47.88;99428.50;5210250;27;31798;-91
2022/04/10 08:45:25;;;;;;;;;;;;;;;9.32;48.55;99417.94;5230381;27;33647;-91
2022/04/10 08:48:04;;;;;;;;;;;;;;;9.26;48.64;99418.03;5234063;27;33725;-91
2022/04/10 08:50:33;;;;;;;;;;;;;;;9.33;49.30;99429.16;5233871;27;36681;-90
2022/04/10 08:53:03;;;;;;;;;;;;;;;9.54;47.60;99428.91;5230241;27;33072;-92
2022/04/10 08:55:34;;;;;;;;;;;;;;;9.47;47.46;99424.69;5230600;27;32656;-90
2022/04/10 08:58:04;;;;;;;;;;;;;;;9.56;46.89;99439.22;5230094;27;34158;-91
2022/04/10 09:00:35;;;;;;;;;;;;;;;9.48;46.55;99431.56;5229027;27;34975;-90
2022/04/10 09:03:05;;;;;;;;;;;;;;;9.24;48.25;99435.31;5234349;27;33998;-91
2022/04/10 09:05:34;;;;;;;;;;;;;;;9.30;47.39;99435.25;5228947;27;34415;-90
2022/04/10 09:08:08;;;;;;;;;;;;;;;9.43;47.82;99433.34;5228224;27;34096;-90
2022/04/10 09:10:57;;;;;;;;;;;;;;;9.46;46.57;99442.81;5228265;27;34174;-89
2022/04/10 09:13:29;;;;;;;;;;;;;;;9.39;46.85;99437.69;5226466;27;33713;-90
2022/04/10 09:16:11;;;;;;;;;;;;;;;9.68;47.62;99439.06;5228589;27;33953;-89
2022/04/10 09:18:49;;;;;;;;;;;;;;;9.95;45.89;99432.62;5214483;27;34053;-89
2022/04/10 09:21:18;;;;;;;;;;;;;;;9.68;46.76;99444.22;5213099;27;33586;-90
2022/04/10 09:23:56;;;;;;;;;;;;;;;9.58;47.32;99440.91;5228508;27;34362;-90
2022/04/10 09:26:43;;;;;;;;;;;;;;;9.48;47.73;99452.25;5228225;27;34670;-89
2022/04/10 09:29:15;;;;;;;;;;;;;;;9.73;45.52;99439.84;5229390;27;35078;-91
2022/04/10 09:31:58;;;;;;;;;;;;;;;9.80;46.02;99440.62;5231218;27;34250;-90
2022/04/10 09:34:34;;;;;;;;;;;;;;;9.77;46.06;99441.53;5231622;27;33249;-90
2022/04/10 09:37:27;;;;;;;;;;;;;;;9.57;46.99;99453.91;5233752;27;34203;-90
2022/04/10 09:42:31;;;;;;;;;;;;;;;9.76;45.06;99454.47;5233636;27;33774;-90
2022/04/10 09:45:27;;;;;;;;;;;;;;;9.91;45.35;99450.84;5212740;27;33040;-89
2022/04/10 09:47:55;;;;;;;;;;;;;;;10.06;46.27;99448.03;5211691;27;32604;-89
2022/04/10 09:50:31;;;;;;;;;;;;;;;10.22;44.96;99446.91;5230047;27;34677;-90
2022/04/10 09:53:08;;;;;;;;;;;;;;;10.03;43.60;99443.75;5231257;27;33330;-89
2022/04/10 09:55:37;;;;;;;;;;;;;;;10.34;43.34;99452.78;5232546;27;31629;-92
2022/04/10 09:58:06;;;;;;;;;;;;;;;9.88;44.58;99459.50;5234973;27;33859;-92
2022/04/10 10:00:37;;;;;;;;;;;;;;;9.70;44.09;99449.41;5229211;27;34317;-90
2022/04/10 10:03:10;;;;;;;;;;;;;;;9.85;44.97;99451.78;5229258;27;34835;-90
2022/04/10 10:05:39;;;;;;;;;;;;;;;9.69;44.86;99447.66;5227313;27;33083;-89
2022/04/10 10:08:10;;;;;;;;;;;;;;;9.99;45.71;99441.22;5231880;27;34438;-91
2022/04/10 10:10:41;;;;;;;;;;;;;;;10.12;42.50;99429.75;5234290;27;33713;-90
2022/04/10 10:13:13;;;;;;;;;;;;;;;9.71;43.25;99451.97;5229298;27;34139;-89
2022/04/10 10:15:42;;;;;;;;;;;;;;;9.55;44.29;99445.28;5228719;27;33318;-89
2022/04/10 10:18:12;;;;;;;;;;;;;;;9.88;44.52;99449.12;5231603;27;34454;-90
2022/04/10 10:20:43;;;;;;;;;;;;;;;9.94;44.10;99446.47;5232974;27;34103;-90
2022/04/10 10:23:13;;;;;;;;;;;;;;;10.21;44.43;99452.09;5234732;27;35184;-91
2022/04/10 10:25:45;;;;;;;;;;;;;;;10.04;44.63;99447.19;5234098;27;33079;-89
2022/04/10 10:28:22;;;;;;;;;;;;;;;10.06;44.13;99457.53;5232832;27;33799;-90
2022/04/10 10:30:57;;;;;;;;;;;;;;;10.03;44.07;99458.44;5234557;27;33920;-90
2022/04/10 10:33:28;;;;;;;;;;;;;;;9.90;44.41;99462.91;5231635;27;34263;-90
2022/04/10 10:36:01;;;;;;;;;;;;;;;9.95;45.04;99460.28;5228257;27;33523;-90
2022/04/10 10:38:31;;;;;;;;;;;;;;;10.11;45.96;99451.41;5233402;27;33754;-89
2022/04/10 10:41:26;;;;;;;;;;;;;;;10.17;45.29;99451.31;5232709;27;34556;-92
2022/04/10 10:43:57;;;;;;;;;;;;;;;10.62;44.71;99454.06;5209440;27;32563;-90
2022/04/10 10:46:28;;;;;;;;;;;;;;;10.80;43.06;99447.72;5230181;27;33988;-91
2022/04/10 10:49:13;;;;;;;;;;;;;;;11.00;42.77;99475.03;5227591;27;33394;-89
2022/04/10 10:51:44;;;;;;;;;;;;;;;10.53;42.63;99463.72;5228558;27;34917;-89
2022/04/10 10:54:14;;;;;;;;;;;;;;;10.39;42.94;99466.53;5227568;27;33022;-90
2022/04/10 10:56:43;;;;;;;;;;;;;;;10.43;43.15;99450.06;5232245;27;33488;-90
2022/04/10 10:59:26;;;;;;;;;;;;;;;10.38;43.31;99437.16;5226733;27;34491;-89
2022/04/10 11:01:55;;;;;;;;;;;;;;;10.34;43.37;99461.47;5227269;27;34275;-89
2022/04/10 11:04:25;;;;;;;;;;;;;;;10.55;42.62;99446.41;5227210;27;34543;-91
2022/04/10 11:07:10;;;;;;;;;;;;;;;10.60;43.56;99445.44;5228932;27;33198;-90
2022/04/10 11:09:47;;;;;;;;;;;;;;;10.62;43.53;99437.63;5231916;27;35586;-89
2022/04/10 11:12:22;;;;;;;;;;;;;;;10.51;43.25;99444.75;5234906;27;35076;-89
2022/04/10 11:14:51;;;;;;;;;;;;;;;10.80;42.43;99460.69;5234786;27;34377;-89
2022/04/10 11:17:26;;;;;;;;;;;;;;;10.72;41.60;99451.31;5229204;27;33375;-90
2022/04/10 11:19:56;;;;;;;;;;;;;;;10.83;41.28;99449.38;5210303;27;32972;-91
2022/04/10 11:22:35;;;;;;;;;;;;;;;10.64;40.76;99456.62;5209746;27;32652;-89
2022/04/10 11:25:07;;;;;;;;;;;;;;;10.51;40.50;99457.72;5228698;27;34298;-90
2022/04/10 11:27:49;;;;;;;;;;;;;;;10.66;40.31;99445.34;5235010;27;33940;-90
2022/04/10 11:30:22;;;;;;;;;;;;;;;10.45;38.13;99431.00;5235374;27;34959;-92
2022/04/10 11:32:52;;;;;;;;;;;;;;;10.70;39.23;99447.88;5229466;27;34048;-89
2022/04/10 11:35:22;;;;;;;;;;;;;;;10.81;37.53;99433.84;5229370;27;33618;-89
2022/04/10 11:37:58;;;;;;;;;;;;;;;10.77;38.43;99449.47;5229317;27;34261;-90
2022/04/10 11:40:36;;;;;;;;;;;;;;;10.74;36.66;99441.75;5228692;27;33255;-90
2022/04/10 11:43:07;;;;;;;;;;;;;;;10.92;37.07;99441.44;5229289;27;34223;-92
2022/04/10 11:45:41;;;;;;;;;;;;;;;10.86;37.00;99441.53;5235097;27;34355;-92
2022/04/10 11:48:10;;;;;;;;;;;;;;;10.67;37.37;99438.41;5228984;27;33914;-89
2022/04/10 11:50:40;;;;;;;;;;;;;;;10.76;37.26;99440.00;5210232;27;34121;-91
2022/04/10 11:53:11;;;;;;;;;;;;;;;11.08;36.64;99439.38;5209511;27;33021;-90
2022/04/10 11:55:44;;;;;;;;;;;;;;;11.17;34.43;99440.97;5229256;27;34527;-90
2022/04/10 11:58:16;;;;;;;;;;;;;;;11.03;35.29;99429.09;5234707;27;33492;-90
2022/04/10 12:00:50;;;;;;;;;;;;;;;11.34;35.58;99438.03;5234857;27;33753;-90
2022/04/10 12:03:21;;;;;;;;;;;;;;;11.74;35.67;99433.72;5229076;27;34184;-90
2022/04/10 12:05:49;;;;;;;;;;;;;;;11.45;35.67;99441.25;5210872;27;32995;-90
2022/04/10 12:08:27;;;;;;;;;;;;;;;11.20;36.35;99448.69;5230025;27;33211;-90
2022/04/10 12:10:56;;;;;;;;;;;;;;;11.12;35.27;99458.38;5228530;27;34095;-90
2022/04/10 12:13:34;;;;;;;;;;;;;;;11.08;35.24;99449.78;5234565;27;33648;-89
2022/04/10 12:16:09;;;;;;;;;;;;;;;11.73;35.64;99442.38;5227863;27;33935;-90
2022/04/10 12:18:49;;;;;;;;;;;;;;;11.55;35.54;99453.19;5229647;27;33430;-89
2022/04/10 12:21:18;;;;;;;;;;;;;;;11.17;35.23;99441.81;5210145;27;34506;-90
2022/04/10 12:23:48;;;;;;;;;;;;;;;11.16;33.36;99441.84;5228845;27;34242;-90
2022/04/10 12:26:17;;;;;;;;;;;;;;;11.18;33.59;99447.84;5228294;27;34547;-89
2022/04/10 12:28:46;;;;;;;;;;;;;;;11.49;33.92;99443.75;5234913;27;33041;-90
2022/04/10 12:31:19;;;;;;;;;;;;;;;11.42;35.25;99443.91;5229023;27;33795;-90
2022/04/10 12:33:54;;;;;;;;;;;;;;;11.66;34.94;99451.19;5228949;27;34968;-90
2022/04/10 12:36:24;;;;;;;;;;;;;;;11.57;35.02;99446.19;5228648;27;35153;-92
2022/04/10 12:38:57;;;;;;;;;;;;;;;11.35;35.30;99448.38;5229134;27;34264;-89
2022/04/10 12:41:26;;;;;;;;;;;;;;;11.46;35.25;99442.97;5229249;27;34286;-91
2022/04/10 12:44:04;;;;;;;;;;;;;;;11.33;37.06;99447.53;5215905;27;33550;-91
2022/04/10 12:46:40;;;;;;;;;;;;;;;11.58;36.35;99436.66;5228239;27;33495;-90
2022/04/10 12:49:09;;;;;;;;;;;;;;;11.91;35.09;99461.97;5230540;27;34309;-90
2022/04/10 12:51:47;;;;;;;;;;;;;;;12.10;33.79;99443.31;5230215;27;34164;-91
2022/04/10 12:54:24;;;;;;;;;;;;;;;12.47;33.44;99450.25;5231213;27;35220;-91
2022/04/10 12:56:53;;;;;;;;;;;;;;;12.87;32.65;99438.81;5231146;27;33830;-91
2022/04/10 12:59:33;;;;;;;;;;;;;;;12.68;33.84;99435.84;5234589;27;33113;-93
2022/04/10 13:02:06;;;;;;;;;;;;;;;12.45;32.43;99441.62;5230023;27;35697;-90
2022/04/10 13:04:34;;;;;;;;;;;;;;;12.97;33.05;99445.47;5229690;27;34206;-90
2022/04/10 13:07:17;;;;;;;;;;;;;;;13.09;31.86;99433.88;5228549;27;34766;-90
2022/04/10 13:09:51;;;;;;;;;;;;;;;12.86;31.85;99431.91;5229271;27;34407;-90
2022/04/10 13:12:22;;;;;;;;;;;;;;;12.94;31.96;99438.59;5209780;27;34033;-89
2022/04/10 13:14:53;;;;;;;;;;;;;;;12.23;34.18;99441.31;5234220;27;35141;-92
2022/04/10 13:17:32;;;;;;;;;;;;;;;11.94;35.15;99445.44;5232406;27;35574;-89
2022/04/10 13:20:05;;;;;;;;;;;;;;;12.43;34.71;99459.87;5227514;27;32431;-92
2022/04/10 13:22:35;;;;;;;;;;;;;;;12.39;32.50;99458.22;5228767;27;34517;-91
2022/04/10 13:25:05;;;;;;;;;;;;;;;12.31;31.05;99457.56;5228440;27;34036;-92
2022/04/10 13:27:34;;;;;;;;;;;;;;;12.62;31.71;99454.22;5226121;27;32769;-90
2022/04/10 13:30:03;;;;;;;;;;;;;;;12.58;30.11;99445.63;5234564;27;33165;-89
2022/04/10 13:32:32;;;;;;;;;;;;;;;12.59;30.70;99445.59;5228590;27;34487;-92
2022/04/10 13:35:05;;;;;;;;;;;;;;;13.02;30.45;99454.00;5212258;27;32633;-90
2022/04/10 13:37:42;;;;;;;;;;;;;;;12.80;30.34;99461.53;5230735;27;34191;-90
2022/04/10 13:40:13;;;;;;;;;;;;;;;12.90;30.76;99442.19;5230916;27;32905;-89
2022/04/10 13:42:49;;;;;;;;;;;;;;;13.10;30.42;99446.88;5234241;27;35244;-90
2022/04/10 13:45:18;;;;;;;;;;;;;;;12.94;30.90;99453.38;5233009;27;33362;-92
2022/04/10 13:47:49;;;;;;;;;;;;;;;12.86;30.59;99464.00;5233140;27;33735;-90